createdAt,value
2019-04-30T21:29:41.862Z,9.61
2019-04-30T21:32:18.968Z,9.57
2019-04-30T21:34:56.736Z,9.43
2019-04-30T21:37:27.039Z,9.58
2019-04-30T21:39:58.648Z,9.53
2019-04-30T21:42:29.204Z,9.64
2019-04-30T21:44:59.490Z,9.60
2019-04-30T21:47:30.783Z,9.32
2019-04-30T21:50:01.671Z,9.39
2019-04-30T21:52:33.710Z,9.36
2019-04-30T21:55:04.682Z,9.19
2019-04-30T21:57:36.280Z,9.36
2019-04-30T22:00:19.138Z,9.26
2019-04-30T22:02:56.030Z,9.27
2019-04-30T22:05:28.049Z,9.46
2019-04-30T22:07:59.226Z,9.29
2019-04-30T22:10:37.686Z,9.41
2019-04-30T22:13:08.921Z,9.48
2019-04-30T22:15:41.163Z,9.35
2019-04-30T22:18:11.383Z,9.27
2019-04-30T22:20:42.501Z,9.41
2019-04-30T22:23:12.577Z,9.46
2019-04-30T22:25:42.871Z,9.26
2019-04-30T22:28:13.219Z,9.18
2019-04-30T22:30:43.488Z,9.31
2019-04-30T22:33:15.605Z,9.54
2019-04-30T22:35:52.087Z,9.47
2019-04-30T22:38:26.555Z,9.42
2019-04-30T22:40:58.918Z,9.29
2019-04-30T22:43:28.761Z,9.28
2019-04-30T22:46:04.114Z,9.25
2019-04-30T22:48:34.302Z,9.22
2019-04-30T22:51:04.984Z,9.06
2019-04-30T22:53:35.692Z,9.06
2019-04-30T22:56:07.964Z,9.04
2019-04-30T22:58:38.042Z,9.23
2019-04-30T23:01:22.837Z,9.28
2019-04-30T23:03:54.407Z,9.09
2019-04-30T23:06:24.811Z,9.09
2019-04-30T23:08:55.322Z,9.05
2019-04-30T23:11:25.731Z,9.01
2019-04-30T23:13:56.945Z,9.08
2019-04-30T23:16:28.805Z,9.04
2019-04-30T23:19:01.861Z,9.07
2019-04-30T23:21:33.073Z,8.95
2019-04-30T23:24:04.570Z,8.91
2019-04-30T23:26:34.714Z,8.86
2019-04-30T23:29:05.756Z,8.85
2019-04-30T23:31:37.944Z,8.82
2019-04-30T23:34:17.836Z,8.80
2019-04-30T23:36:40.409Z,8.82
2019-04-30T23:39:11.271Z,9.01
2019-04-30T23:41:41.559Z,9.09
2019-04-30T23:44:11.939Z,8.92
2019-04-30T23:46:44.051Z,9.07
2019-04-30T23:49:16.715Z,8.97
2019-04-30T23:51:46.856Z,8.75
2019-04-30T23:54:17.229Z,8.82
2019-04-30T23:56:47.508Z,8.80
2019-04-30T23:59:17.687Z,8.81
